createdAt,value
2022-10-28T00:00:48.561Z,81.92
2022-10-28T00:03:15.355Z,81.68
2022-10-28T00:05:42.017Z,81.39
2022-10-28T00:08:08.788Z,81.71
2022-10-28T00:10:35.569Z,81.11
2022-10-28T00:13:02.156Z,81.59
2022-10-28T00:15:28.777Z,80.77
2022-10-28T00:17:55.713Z,81.08
2022-10-28T00:20:22.472Z,80.99
2022-10-28T00:22:49.062Z,80.67
2022-10-28T00:25:15.675Z,81.00
2022-10-28T00:27:44.160Z,80.63
2022-10-28T00:30:11.375Z,80.59
2022-10-28T00:32:37.959Z,80.21
2022-10-28T00:35:04.922Z,80.54
2022-10-28T00:37:31.549Z,80.19
2022-10-28T00:39:58.139Z,80.04
2022-10-28T00:42:24.724Z,79.84
2022-10-28T00:44:59.541Z,79.82
2022-10-28T00:47:52.511Z,79.69
2022-10-28T00:50:34.952Z,79.62
2022-10-28T00:53:28.919Z,79.38
2022-10-28T00:55:57.387Z,79.34
2022-10-28T00:58:25.449Z,78.90
2022-10-28T01:00:52.092Z,79.07
2022-10-28T01:03:19.002Z,79.18
2022-10-28T01:05:48.191Z,78.47
2022-10-28T01:08:15.844Z,78.83
2022-10-28T01:11:09.706Z,78.44
2022-10-28T01:13:51.463Z,78.18
2022-10-28T01:16:27.583Z,78.24
2022-10-28T01:19:06.321Z,77.69
2022-10-28T01:21:51.153Z,77.73
2022-10-28T01:24:43.984Z,77.85
2022-10-28T01:27:25.456Z,77.70
2022-10-28T01:30:15.132Z,77.60
2022-10-28T01:32:52.767Z,77.61
2022-10-28T01:35:44.464Z,77.68
2022-10-28T01:38:29.801Z,77.79
2022-10-28T01:41:04.162Z,77.26
2022-10-28T01:43:40.778Z,77.76
2022-10-28T01:46:25.275Z,77.30
2022-10-28T01:49:12.068Z,77.41
2022-10-28T01:51:43.374Z,77.76
2022-10-28T01:54:11.423Z,76.94
2022-10-28T01:56:40.768Z,77.05
2022-10-28T01:59:11.209Z,77.19
2022-10-28T02:01:38.101Z,77.60
2022-10-28T02:04:04.910Z,77.27
2022-10-28T02:06:34.877Z,77.30
2022-10-28T02:09:19.804Z,77.46
2022-10-28T02:11:46.398Z,77.47
2022-10-28T02:14:34.680Z,77.63
2022-10-28T02:17:17.979Z,77.50
2022-10-28T02:20:23.602Z,77.53
2022-10-28T02:23:08.727Z,78.14
2022-10-28T02:25:41.918Z,77.87
2022-10-28T02:28:19.151Z,78.05
2022-10-28T02:31:00.301Z,77.82
2022-10-28T02:33:31.415Z,78.43
2022-10-28T02:36:04.085Z,78.53
2022-10-28T02:38:40.377Z,78.46
2022-10-28T02:41:16.656Z,78.43
2022-10-28T02:43:44.043Z,78.80
2022-10-28T02:46:12.670Z,78.90
2022-10-28T02:49:09.079Z,78.81
2022-10-28T02:51:57.903Z,78.71
2022-10-28T02:54:54.633Z,78.60
2022-10-28T02:57:24.566Z,79.01
2022-10-28T02:59:55.026Z,79.03
2022-10-28T03:02:24.684Z,79.05
2022-10-28T03:04:51.431Z,79.13
2022-10-28T03:07:18.186Z,78.96
2022-10-28T03:09:44.867Z,79.31
2022-10-28T03:12:11.689Z,78.83
2022-10-28T03:14:38.378Z,79.44
2022-10-28T03:17:05.018Z,79.74
2022-10-28T03:19:31.609Z,79.41
2022-10-28T03:21:58.182Z,79.89
2022-10-28T03:24:24.778Z,79.57
2022-10-28T03:26:56.375Z,79.65
2022-10-28T03:29:23.103Z,79.64
2022-10-28T03:31:49.695Z,79.69
2022-10-28T03:34:16.337Z,80.07
2022-10-28T03:36:43.001Z,79.83
2022-10-28T03:39:09.635Z,80.03
2022-10-28T03:41:36.322Z,79.79
2022-10-28T03:44:02.938Z,79.92
2022-10-28T03:46:32.290Z,80.09
2022-10-28T03:49:01.752Z,80.42
2022-10-28T03:51:28.424Z,80.53
2022-10-28T03:53:55.024Z,80.06
2022-10-28T03:56:21.740Z,80.50
2022-10-28T03:58:49.081Z,80.40
2022-10-28T04:01:15.844Z,80.18
2022-10-28T04:03:42.538Z,80.57
2022-10-28T04:06:10.256Z,80.57
2022-10-28T04:08:37.496Z,80.77
2022-10-28T04:11:04.372Z,80.65
2022-10-28T04:13:31.081Z,80.66
2022-10-28T04:15:57.778Z,80.20
2022-10-28T04:18:24.371Z,80.52
2022-10-28T04:20:51.249Z,80.21
2022-10-28T04:23:20.692Z,80.64
2022-10-28T04:25:47.377Z,80.42
2022-10-28T04:28:13.922Z,80.75
2022-10-28T04:30:40.514Z,80.54
2022-10-28T04:33:07.096Z,80.42
2022-10-28T04:35:33.695Z,80.24
2022-10-28T04:38:00.312Z,80.82
2022-10-28T04:40:27.012Z,80.43
2022-10-28T04:42:53.806Z,80.66
2022-10-28T04:45:20.649Z,80.13
2022-10-28T04:47:47.274Z,80.43
2022-10-28T04:50:13.963Z,80.63
2022-10-28T04:52:40.592Z,80.40
2022-10-28T04:55:07.449Z,80.53
2022-10-28T04:57:34.022Z,80.58
2022-10-28T05:00:00.603Z,80.35
2022-10-28T05:02:27.296Z,80.30
2022-10-28T05:04:53.982Z,80.42
2022-10-28T05:07:22.843Z,80.68
2022-10-28T05:09:50.445Z,80.43
2022-10-28T05:12:17.053Z,80.21
2022-10-28T05:14:43.688Z,80.40
2022-10-28T05:17:15.301Z,80.81
2022-10-28T05:19:45.296Z,80.54
2022-10-28T05:22:11.909Z,80.28
2022-10-28T05:24:38.590Z,80.68
2022-10-28T05:27:05.213Z,80.27
2022-10-28T05:29:33.446Z,80.26
2022-10-28T05:32:00.514Z,80.08
2022-10-28T05:34:27.159Z,80.61
2022-10-28T05:36:53.747Z,80.32
2022-10-28T05:39:20.317Z,80.58
2022-10-28T05:41:46.935Z,80.67
2022-10-28T05:44:13.502Z,80.67
2022-10-28T05:46:40.085Z,80.46
2022-10-28T05:49:06.731Z,80.71
2022-10-28T05:51:33.360Z,80.82
2022-10-28T05:53:59.981Z,80.42
2022-10-28T05:56:31.672Z,80.87
2022-10-28T05:58:58.337Z,80.31
2022-10-28T06:01:25.094Z,80.70
2022-10-28T06:03:57.808Z,80.73
2022-10-28T06:06:24.785Z,80.53
2022-10-28T06:08:51.348Z,80.69
2022-10-28T06:11:18.429Z,80.91
2022-10-28T06:13:45.431Z,80.77
2022-10-28T06:16:18.128Z,81.03
2022-10-28T06:18:44.958Z,80.40
2022-10-28T06:21:11.837Z,80.79
2022-10-28T06:23:38.401Z,80.71
2022-10-28T06:26:05.224Z,80.82
2022-10-28T06:28:31.867Z,80.89
2022-10-28T06:31:07.086Z,80.97
2022-10-28T06:33:33.983Z,80.09
2022-10-28T06:36:00.842Z,81.04
2022-10-28T06:38:28.152Z,80.43
2022-10-28T06:41:03.836Z,80.94
2022-10-28T06:43:30.483Z,80.67
2022-10-28T06:46:01.569Z,80.55
2022-10-28T06:48:29.898Z,80.50
2022-10-28T06:50:57.752Z,80.69
2022-10-28T06:53:25.358Z,80.50
2022-10-28T06:55:55.770Z,80.55
2022-10-28T06:58:23.252Z,80.15
2022-10-28T07:00:49.903Z,80.15
2022-10-28T07:03:17.151Z,80.34
2022-10-28T07:05:43.758Z,80.37
2022-10-28T07:08:10.564Z,80.17
2022-10-28T07:10:37.363Z,80.28
2022-10-28T07:13:04.350Z,80.02
2022-10-28T07:15:30.960Z,80.31
2022-10-28T07:17:58.864Z,80.52
2022-10-28T07:20:27.403Z,80.06
2022-10-28T07:22:58.246Z,80.33
2022-10-28T07:25:25.250Z,80.28
2022-10-28T07:27:52.123Z,80.45
2022-10-28T07:30:19.113Z,79.85
2022-10-28T07:32:45.744Z,79.75
2022-10-28T07:35:12.335Z,79.50
2022-10-28T07:37:39.579Z,79.53
2022-10-28T07:40:07.083Z,79.39
2022-10-28T07:42:34.406Z,79.67
2022-10-28T07:45:01.056Z,79.48
2022-10-28T07:47:27.776Z,79.54
2022-10-28T07:49:57.231Z,79.08
2022-10-28T07:52:23.962Z,78.88
2022-10-28T07:54:51.189Z,78.87
2022-10-28T07:57:18.423Z,78.87
2022-10-28T07:59:45.420Z,78.86
2022-10-28T08:02:18.116Z,78.38
2022-10-28T08:04:44.732Z,78.28
2022-10-28T08:07:12.197Z,78.66
2022-10-28T08:09:39.339Z,78.43
2022-10-28T08:12:07.152Z,78.64
2022-10-28T08:14:33.872Z,78.14
2022-10-28T08:17:01.342Z,77.81
2022-10-28T08:19:28.095Z,78.15
2022-10-28T08:21:54.817Z,78.07
2022-10-28T08:24:21.419Z,77.72
2022-10-28T08:26:48.146Z,77.54
2022-10-28T08:29:14.936Z,77.81
2022-10-28T08:31:46.535Z,77.66
2022-10-28T08:34:13.282Z,77.30
2022-10-28T08:36:40.000Z,77.25
2022-10-28T08:39:06.894Z,77.43
2022-10-28T08:41:55.503Z,77.54
2022-10-28T08:44:42.285Z,76.95
2022-10-28T08:47:48.846Z,76.74
2022-10-28T08:50:18.350Z,77.13
2022-10-28T08:53:03.021Z,76.74
2022-10-28T08:55:40.085Z,76.13
2022-10-28T08:58:11.105Z,76.30
2022-10-28T09:00:38.196Z,76.25
2022-10-28T09:03:18.438Z,76.10
2022-10-28T09:05:48.049Z,75.55
2022-10-28T09:08:25.991Z,75.19
2022-10-28T09:11:09.073Z,74.95
2022-10-28T09:13:50.591Z,74.72
2022-10-28T09:16:50.692Z,74.55
2022-10-28T09:19:39.732Z,74.23
2022-10-28T09:22:19.815Z,73.65
2022-10-28T09:24:53.737Z,73.49
2022-10-28T09:27:24.756Z,73.18
2022-10-28T09:30:05.885Z,72.43
2022-10-28T09:32:40.931Z,72.69
2022-10-28T09:35:18.978Z,71.88
2022-10-28T09:38:20.477Z,71.74
2022-10-28T09:40:55.460Z,71.57
2022-10-28T09:43:27.005Z,70.67
2022-10-28T09:45:59.129Z,71.04
2022-10-28T09:48:32.937Z,70.72
2022-10-28T09:51:02.547Z,70.74
2022-10-28T09:53:51.853Z,70.12
2022-10-28T09:56:19.318Z,70.21
2022-10-28T09:58:47.780Z,69.95
2022-10-28T10:01:17.433Z,69.85
2022-10-28T10:03:46.077Z,69.52
2022-10-28T10:06:16.542Z,69.24
2022-10-28T10:08:45.329Z,68.77
2022-10-28T10:11:23.085Z,69.13
2022-10-28T10:13:50.634Z,68.62
2022-10-28T10:16:41.750Z,68.44
2022-10-28T10:19:12.187Z,68.22
2022-10-28T10:21:50.125Z,67.82
2022-10-28T10:24:23.511Z,66.77
2022-10-28T10:26:52.841Z,66.06
2022-10-28T10:29:20.471Z,65.31
2022-10-28T10:31:48.603Z,65.78
2022-10-28T10:34:26.879Z,65.54
2022-10-28T10:36:56.645Z,65.02
2022-10-28T10:39:27.210Z,63.88
2022-10-28T10:41:56.202Z,62.07
2022-10-28T10:44:22.853Z,60.62
2022-10-28T10:47:06.483Z,59.32
2022-10-28T10:49:34.981Z,58.30
2022-10-28T10:52:07.871Z,57.85
2022-10-28T10:54:36.373Z,57.52
2022-10-28T10:57:22.162Z,58.38
2022-10-28T10:59:51.405Z,58.04
2022-10-28T11:02:36.754Z,57.84
2022-10-28T11:05:09.985Z,56.15
2022-10-28T11:07:38.208Z,55.34
2022-10-28T11:10:05.872Z,54.84
2022-10-28T11:12:51.678Z,55.49
2022-10-28T11:15:30.129Z,56.75
2022-10-28T11:18:04.423Z,56.36
2022-10-28T11:20:47.226Z,55.99
2022-10-28T11:23:52.428Z,55.72
2022-10-28T11:26:21.291Z,55.30
2022-10-28T11:28:55.534Z,55.31
2022-10-28T11:31:46.331Z,55.32
2022-10-28T11:34:47.071Z,55.61
2022-10-28T11:37:44.832Z,56.00
2022-10-28T11:40:33.530Z,57.00
2022-10-28T11:43:15.504Z,57.19
2022-10-28T11:46:05.482Z,57.62
2022-10-28T11:48:57.584Z,56.27
2022-10-28T11:51:47.697Z,56.24
2022-10-28T11:54:43.465Z,56.43
2022-10-28T11:57:16.382Z,57.13
2022-10-28T12:00:20.553Z,57.18
2022-10-28T12:03:12.476Z,57.33
2022-10-28T12:05:48.309Z,57.16
2022-10-28T12:08:26.245Z,56.89
2022-10-28T12:11:23.948Z,56.56
2022-10-28T12:14:07.953Z,57.04
2022-10-28T12:16:46.906Z,56.80
2022-10-28T12:19:19.622Z,57.48
2022-10-28T12:22:22.292Z,57.57
2022-10-28T12:25:11.171Z,57.44
2022-10-28T12:27:42.131Z,57.85
2022-10-28T12:30:15.813Z,58.43
2022-10-28T12:32:44.034Z,57.76
2022-10-28T12:35:17.843Z,58.18
2022-10-28T12:37:50.958Z,58.25
2022-10-28T12:40:22.840Z,58.59
2022-10-28T12:43:00.382Z,58.46
2022-10-28T12:45:27.468Z,58.52
2022-10-28T12:47:56.927Z,58.27
2022-10-28T12:50:58.336Z,57.31
2022-10-28T12:53:33.698Z,57.58
2022-10-28T12:56:01.528Z,56.84
2022-10-28T12:58:35.891Z,57.51
2022-10-28T13:01:07.207Z,57.67
2022-10-28T13:03:35.590Z,58.34
2022-10-28T13:06:11.177Z,59.54
2022-10-28T13:08:44.887Z,59.60
2022-10-28T13:11:20.599Z,59.71
2022-10-28T13:13:47.184Z,60.32
2022-10-28T13:16:33.094Z,60.98
2022-10-28T13:19:10.395Z,61.61
2022-10-28T13:21:40.051Z,61.57
2022-10-28T13:24:31.025Z,61.58
2022-10-28T13:26:57.743Z,62.38
2022-10-28T13:29:26.584Z,61.96
2022-10-28T13:31:53.923Z,62.37
2022-10-28T13:34:23.087Z,62.29
2022-10-28T13:36:59.466Z,62.92
2022-10-28T13:39:42.301Z,62.70
2022-10-28T13:42:15.043Z,62.17
2022-10-28T13:44:47.881Z,61.18
2022-10-28T13:47:14.429Z,59.92
2022-10-28T13:50:05.975Z,59.03
2022-10-28T13:52:36.767Z,59.14
2022-10-28T13:55:27.763Z,59.72
2022-10-28T13:58:04.012Z,59.69
2022-10-28T14:00:30.561Z,58.20
2022-10-28T14:03:26.902Z,57.64
2022-10-28T14:05:56.813Z,57.94
2022-10-28T14:08:40.379Z,57.20
2022-10-28T14:11:14.511Z,56.39
2022-10-28T14:13:48.029Z,55.96
2022-10-28T14:16:31.248Z,55.81
2022-10-28T14:19:17.445Z,55.46
2022-10-28T14:22:02.497Z,55.32
2022-10-28T14:24:43.591Z,54.91
2022-10-28T14:27:11.684Z,54.76
2022-10-28T14:29:57.605Z,54.72
2022-10-28T14:32:33.424Z,55.46
2022-10-28T14:35:03.052Z,55.60
2022-10-28T14:37:47.805Z,55.68
2022-10-28T14:40:23.623Z,55.87
2022-10-28T14:43:13.794Z,56.12
2022-10-28T14:46:11.642Z,56.47
2022-10-28T14:48:50.728Z,56.45
2022-10-28T14:51:24.013Z,56.93
2022-10-28T14:53:59.665Z,56.74
2022-10-28T14:56:31.392Z,57.22
2022-10-28T14:59:01.122Z,57.62
2022-10-28T15:01:33.169Z,57.50
2022-10-28T15:04:13.875Z,57.41
2022-10-28T15:06:47.010Z,58.23
2022-10-28T15:09:20.013Z,57.63
2022-10-28T15:12:13.812Z,58.43
2022-10-28T15:14:50.717Z,58.45
2022-10-28T15:17:19.873Z,58.30
2022-10-28T15:20:01.724Z,58.66
2022-10-28T15:22:32.777Z,58.61
2022-10-28T15:25:05.718Z,58.83
2022-10-28T15:27:34.635Z,59.84
2022-10-28T15:30:15.115Z,59.52
2022-10-28T15:32:45.182Z,60.19
2022-10-28T15:35:38.338Z,60.73
2022-10-28T15:38:28.243Z,60.45
2022-10-28T15:40:55.200Z,61.41
2022-10-28T15:43:27.057Z,61.48
2022-10-28T15:45:54.203Z,61.82
2022-10-28T15:48:24.414Z,61.62
2022-10-28T15:51:13.859Z,62.15
2022-10-28T15:53:47.284Z,62.15
2022-10-28T15:56:13.825Z,62.25
2022-10-28T15:58:42.382Z,62.51
2022-10-28T16:01:31.318Z,62.68
2022-10-28T16:03:58.363Z,63.09
2022-10-28T16:06:33.877Z,63.17
2022-10-28T16:09:14.155Z,63.20
2022-10-28T16:11:43.963Z,63.01
2022-10-28T16:14:27.303Z,63.07
2022-10-28T16:16:54.142Z,63.06
2022-10-28T16:19:33.885Z,63.56
2022-10-28T16:22:00.515Z,63.35
2022-10-28T16:24:27.154Z,63.41
2022-10-28T16:26:54.622Z,64.28
2022-10-28T16:29:21.288Z,64.18
2022-10-28T16:31:53.086Z,64.45
2022-10-28T16:34:19.753Z,64.66
2022-10-28T16:36:46.619Z,64.42
2022-10-28T16:39:13.746Z,64.88
2022-10-28T16:41:41.127Z,65.15
2022-10-28T16:44:18.459Z,64.72
2022-10-28T16:46:45.320Z,65.63
2022-10-28T16:49:12.172Z,65.81
2022-10-28T16:51:39.387Z,65.46
2022-10-28T16:54:06.281Z,65.51
2022-10-28T16:56:39.293Z,65.88
2022-10-28T16:59:06.078Z,65.93
2022-10-28T17:01:33.413Z,66.33
2022-10-28T17:04:00.245Z,65.95
2022-10-28T17:06:32.419Z,66.23
2022-10-28T17:09:03.640Z,66.58
2022-10-28T17:14:22.887Z,66.39
2022-10-28T17:16:50.045Z,66.86
2022-10-28T17:19:16.982Z,66.66
2022-10-28T17:21:47.020Z,67.04
2022-10-28T17:24:43.560Z,66.64
2022-10-28T17:27:52.193Z,67.07
2022-10-28T17:30:19.932Z,67.56
2022-10-28T17:32:50.827Z,67.97
2022-10-28T17:35:24.856Z,67.67
2022-10-28T17:37:53.803Z,68.17
2022-10-28T17:40:22.928Z,68.31
2022-10-28T17:42:49.884Z,68.11
2022-10-28T17:45:19.554Z,68.96
2022-10-28T17:47:51.460Z,69.08
2022-10-28T17:50:18.403Z,68.75
2022-10-28T17:52:45.131Z,69.09
2022-10-28T17:55:11.781Z,69.11
2022-10-28T17:57:38.436Z,69.35
2022-10-28T18:00:05.549Z,69.51
2022-10-28T18:02:34.805Z,69.83
2022-10-28T18:05:01.890Z,69.96
2022-10-28T18:07:28.789Z,70.03
2022-10-28T18:09:55.429Z,70.24
2022-10-28T18:12:23.559Z,70.45
2022-10-28T18:14:50.227Z,70.48
2022-10-28T18:17:18.002Z,71.14
2022-10-28T18:19:44.660Z,70.91
2022-10-28T18:22:11.280Z,70.92
2022-10-28T18:24:37.973Z,71.19
2022-10-28T18:27:04.601Z,71.65
2022-10-28T18:29:31.272Z,71.27
2022-10-28T18:31:58.129Z,71.80
2022-10-28T18:34:24.966Z,71.91
2022-10-28T18:36:52.012Z,72.06
2022-10-28T18:39:18.662Z,72.30
2022-10-28T18:41:45.503Z,72.33
2022-10-28T18:44:14.345Z,72.29
2022-10-28T18:46:41.367Z,72.98
2022-10-28T18:49:08.126Z,73.35
2022-10-28T18:51:35.007Z,73.53
2022-10-28T18:54:01.883Z,73.31
2022-10-28T18:56:31.342Z,74.01
2022-10-28T18:58:59.975Z,73.88
2022-10-28T19:01:28.459Z,73.95
2022-10-28T19:03:57.634Z,74.30
2022-10-28T19:06:26.427Z,74.64
2022-10-28T19:08:54.645Z,74.12
2022-10-28T19:11:22.540Z,74.36
2022-10-28T19:13:49.432Z,74.64
2022-10-28T19:16:16.269Z,74.41
2022-10-28T19:18:42.964Z,74.28
2022-10-28T19:21:14.767Z,74.46
2022-10-28T19:23:43.494Z,74.43
2022-10-28T19:26:11.099Z,74.84
2022-10-28T19:28:42.916Z,74.71
2022-10-28T19:31:12.464Z,74.77
2022-10-28T19:33:39.319Z,74.70
2022-10-28T19:36:12.985Z,75.14
2022-10-28T19:38:39.648Z,75.49
2022-10-28T19:41:11.713Z,74.89
2022-10-28T19:43:52.462Z,75.51
2022-10-28T19:46:22.467Z,75.37
2022-10-28T19:48:54.227Z,74.97
2022-10-28T19:51:28.871Z,75.41
2022-10-28T19:53:57.579Z,75.35
2022-10-28T19:56:25.004Z,75.30
2022-10-28T19:58:55.079Z,75.50
2022-10-28T20:01:22.864Z,75.41
2022-10-28T20:03:53.728Z,75.51
2022-10-28T20:06:27.534Z,76.11
2022-10-28T20:08:54.246Z,76.14
2022-10-28T20:11:26.821Z,76.24
2022-10-28T20:14:01.114Z,76.65
2022-10-28T20:16:28.016Z,76.52
2022-10-28T20:18:55.337Z,76.50
2022-10-28T20:21:23.101Z,76.48
2022-10-28T20:23:55.444Z,76.98
2022-10-28T20:26:24.408Z,76.22
2022-10-28T20:28:51.531Z,76.56
2022-10-28T20:31:20.105Z,77.21
2022-10-28T20:33:58.779Z,77.24
2022-10-28T20:36:33.090Z,76.66
2022-10-28T20:39:09.017Z,77.59
2022-10-28T20:41:37.078Z,77.47
2022-10-28T20:44:04.318Z,77.58
2022-10-28T20:46:31.467Z,77.12
2022-10-28T20:48:58.295Z,77.53
2022-10-28T20:51:26.070Z,77.79
2022-10-28T20:53:52.727Z,77.27
2022-10-28T20:56:20.412Z,78.12
2022-10-28T20:58:47.520Z,78.55
2022-10-28T21:01:39.797Z,78.82
2022-10-28T21:04:09.099Z,79.25
2022-10-28T21:06:36.841Z,80.05
2022-10-28T21:09:05.331Z,80.14
2022-10-28T21:11:32.242Z,79.91
2022-10-28T21:14:00.206Z,80.42
2022-10-28T21:16:27.902Z,80.53
2022-10-28T21:18:54.917Z,80.02
2022-10-28T21:21:23.014Z,80.76
2022-10-28T21:23:49.904Z,80.96
2022-10-28T21:26:17.125Z,81.06
2022-10-28T21:28:44.078Z,81.34
2022-10-28T21:31:15.348Z,80.98
2022-10-28T21:33:43.022Z,81.49
2022-10-28T21:36:12.385Z,81.61
2022-10-28T21:38:39.448Z,81.23
2022-10-28T21:41:09.702Z,81.32
2022-10-28T21:43:38.500Z,81.65
2022-10-28T21:46:05.910Z,81.94
2022-10-28T21:48:33.387Z,81.77
2022-10-28T21:51:01.765Z,82.16
2022-10-28T21:53:31.812Z,81.68
2022-10-28T21:56:18.165Z,82.54
2022-10-28T21:58:46.317Z,82.29
2022-10-28T22:01:15.232Z,82.76
2022-10-28T22:03:41.912Z,82.93
2022-10-28T22:06:08.837Z,83.14
2022-10-28T22:08:35.576Z,83.30
2022-10-28T22:11:08.341Z,83.86
2022-10-28T22:13:35.582Z,83.79
2022-10-28T22:16:04.349Z,84.13
2022-10-28T22:18:32.987Z,84.50
2022-10-28T22:21:29.787Z,83.85
2022-10-28T22:23:56.427Z,84.60
2022-10-28T22:26:25.421Z,84.32
2022-10-28T22:28:52.470Z,84.14
2022-10-28T22:31:22.424Z,84.39
2022-10-28T22:33:49.801Z,84.92
2022-10-28T22:36:19.378Z,84.55
2022-10-28T22:38:46.364Z,85.03
2022-10-28T22:41:17.985Z,84.56
2022-10-28T22:43:46.711Z,85.04
2022-10-28T22:46:15.187Z,84.98
2022-10-28T22:48:41.955Z,84.97
2022-10-28T22:51:09.885Z,84.82
2022-10-28T22:53:40.349Z,84.95
2022-10-28T22:56:08.436Z,85.20
2022-10-28T22:58:35.059Z,85.02
2022-10-28T23:01:07.094Z,85.32
2022-10-28T23:03:38.988Z,85.25
2022-10-28T23:06:06.347Z,85.75
2022-10-28T23:08:33.205Z,85.18
2022-10-28T23:11:00.326Z,85.64
2022-10-28T23:13:27.222Z,85.74
2022-10-28T23:15:54.548Z,86.02
2022-10-28T23:18:22.066Z,86.03
2022-10-28T23:20:52.181Z,86.78
2022-10-28T23:23:18.948Z,86.36
2022-10-28T23:25:53.600Z,86.71
2022-10-28T23:28:21.077Z,86.88
2022-10-28T23:30:47.698Z,87.09
2022-10-28T23:33:14.741Z,87.58
2022-10-28T23:35:42.840Z,87.88
2022-10-28T23:38:11.817Z,87.41
2022-10-28T23:40:38.592Z,87.91
2022-10-28T23:43:05.162Z,87.31
2022-10-28T23:45:31.759Z,87.91
2022-10-28T23:47:58.409Z,87.78
2022-10-28T23:50:25.018Z,87.55
2022-10-28T23:52:55.686Z,87.66
2022-10-28T23:55:22.601Z,88.08
2022-10-28T23:57:49.246Z,88.33
